sensor_id;sensor_type;location;lat;lon;timestamp;P1;durP1;ratioP1;P2;durP2;ratioP2
75261;SDS011;63859;51.064;4.580;2023-10-19T00:00:45;5.28;;;1.15;;
75261;SDS011;63859;51.064;4.580;2023-10-19T00:03:14;3.65;;;1.30;;
75261;SDS011;63859;51.064;4.580;2023-10-19T00:05:40;5.03;;;1.38;;
75261;SDS011;63859;51.064;4.580;2023-10-19T00:08:10;4.00;;;1.20;;
75261;SDS011;63859;51.064;4.580;2023-10-19T00:10:39;5.90;;;1.05;;
75261;SDS011;63859;51.064;4.580;2023-10-19T00:13:10;4.03;;;1.00;;
75261;SDS011;63859;51.064;4.580;2023-10-19T00:15:37;3.03;;;1.17;;
75261;SDS011;63859;51.064;4.580;2023-10-19T00:18:16;2.90;;;1.10;;
75261;SDS011;63859;51.064;4.580;2023-10-19T00:20:43;4.75;;;0.95;;
75261;SDS011;63859;51.064;4.580;2023-10-19T00:23:11;3.33;;;1.13;;
75261;SDS011;63859;51.064;4.580;2023-10-19T00:25:44;4.47;;;1.10;;
75261;SDS011;63859;51.064;4.580;2023-10-19T00:28:14;5.47;;;0.95;;
75261;SDS011;63859;51.064;4.580;2023-10-19T00:30:42;4.72;;;1.30;;
75261;SDS011;63859;51.064;4.580;2023-10-19T00:33:10;5.68;;;1.00;;
75261;SDS011;63859;51.064;4.580;2023-10-19T00:35:46;3.42;;;1.15;;
75261;SDS011;63859;51.064;4.580;2023-10-19T00:38:23;3.50;;;1.10;;
75261;SDS011;63859;51.064;4.580;2023-10-19T00:41:10;3.33;;;1.00;;
75261;SDS011;63859;51.064;4.580;2023-10-19T00:43:36;2.83;;;1.58;;
75261;SDS011;63859;51.064;4.580;2023-10-19T00:46:09;4.38;;;1.00;;
75261;SDS011;63859;51.064;4.580;2023-10-19T00:48:45;4.63;;;1.00;;
75261;SDS011;63859;51.064;4.580;2023-10-19T00:51:22;4.88;;;1.10;;
75261;SDS011;63859;51.064;4.580;2023-10-19T00:54:12;6.28;;;1.27;;
75261;SDS011;63859;51.064;4.580;2023-10-19T00:56:47;3.30;;;1.17;;
75261;SDS011;63859;51.064;4.580;2023-10-19T00:59:21;1.88;;;0.95;;
75261;SDS011;63859;51.064;4.580;2023-10-19T01:01:50;2.78;;;1.20;;
75261;SDS011;63859;51.064;4.580;2023-10-19T01:04:19;4.97;;;1.08;;
75261;SDS011;63859;51.064;4.580;2023-10-19T01:06:48;2.35;;;1.00;;
75261;SDS011;63859;51.064;4.580;2023-10-19T01:09:30;4.20;;;1.13;;
75261;SDS011;63859;51.064;4.580;2023-10-19T01:12:04;4.75;;;1.30;;
75261;SDS011;63859;51.064;4.580;2023-10-19T01:17:36;2.97;;;1.27;;
75261;SDS011;63859;51.064;4.580;2023-10-19T01:20:14;4.97;;;0.90;;
75261;SDS011;63859;51.064;4.580;2023-10-19T01:23:00;2.05;;;0.85;;
75261;SDS011;63859;51.064;4.580;2023-10-19T01:28:12;3.97;;;1.30;;
75261;SDS011;63859;51.064;4.580;2023-10-19T01:30:42;2.88;;;1.08;;
75261;SDS011;63859;51.064;4.580;2023-10-19T01:33:09;4.97;;;1.60;;
75261;SDS011;63859;51.064;4.580;2023-10-19T01:35:41;4.63;;;1.33;;
75261;SDS011;63859;51.064;4.580;2023-10-19T01:38:26;6.53;;;1.20;;
75261;SDS011;63859;51.064;4.580;2023-10-19T01:40:55;5.45;;;1.08;;
75261;SDS011;63859;51.064;4.580;2023-10-19T01:43:25;8.02;;;1.27;;
75261;SDS011;63859;51.064;4.580;2023-10-19T01:45:55;3.92;;;1.00;;
75261;SDS011;63859;51.064;4.580;2023-10-19T01:48:21;4.07;;;1.38;;
75261;SDS011;63859;51.064;4.580;2023-10-19T01:51:02;3.13;;;1.45;;
75261;SDS011;63859;51.064;4.580;2023-10-19T01:53:32;7.88;;;1.60;;
75261;SDS011;63859;51.064;4.580;2023-10-19T01:56:04;5.15;;;1.33;;
75261;SDS011;63859;51.064;4.580;2023-10-19T01:58:30;5.13;;;1.55;;
75261;SDS011;63859;51.064;4.580;2023-10-19T02:01:01;7.00;;;1.60;;
75261;SDS011;63859;51.064;4.580;2023-10-19T02:03:33;7.90;;;2.00;;
75261;SDS011;63859;51.064;4.580;2023-10-19T02:06:00;4.72;;;1.80;;
75261;SDS011;63859;51.064;4.580;2023-10-19T02:08:44;6.35;;;2.20;;
75261;SDS011;63859;51.064;4.580;2023-10-19T02:11:16;8.13;;;2.28;;
75261;SDS011;63859;51.064;4.580;2023-10-19T02:13:46;6.75;;;2.50;;
75261;SDS011;63859;51.064;4.580;2023-10-19T02:16:14;6.03;;;2.45;;
75261;SDS011;63859;51.064;4.580;2023-10-19T02:18:54;7.10;;;2.55;;
75261;SDS011;63859;51.064;4.580;2023-10-19T02:21:21;7.57;;;2.75;;
75261;SDS011;63859;51.064;4.580;2023-10-19T02:23:50;6.70;;;2.78;;
75261;SDS011;63859;51.064;4.580;2023-10-19T02:26:16;5.78;;;2.55;;
75261;SDS011;63859;51.064;4.580;2023-10-19T02:28:44;9.77;;;2.92;;
75261;SDS011;63859;51.064;4.580;2023-10-19T02:31:16;7.60;;;2.45;;
75261;SDS011;63859;51.064;4.580;2023-10-19T02:33:50;5.35;;;2.47;;
75261;SDS011;63859;51.064;4.580;2023-10-19T02:36:17;5.80;;;2.10;;
75261;SDS011;63859;51.064;4.580;2023-10-19T02:38:45;5.30;;;2.53;;
75261;SDS011;63859;51.064;4.580;2023-10-19T02:41:18;6.38;;;2.42;;
75261;SDS011;63859;51.064;4.580;2023-10-19T02:43:46;6.82;;;2.47;;
75261;SDS011;63859;51.064;4.580;2023-10-19T02:46:16;8.70;;;2.53;;
75261;SDS011;63859;51.064;4.580;2023-10-19T02:48:46;6.00;;;2.40;;
75261;SDS011;63859;51.064;4.580;2023-10-19T02:51:14;5.40;;;1.95;;
75261;SDS011;63859;51.064;4.580;2023-10-19T02:53:40;6.03;;;2.33;;
75261;SDS011;63859;51.064;4.580;2023-10-19T02:56:13;9.02;;;2.17;;
75261;SDS011;63859;51.064;4.580;2023-10-19T02:58:44;11.85;;;2.30;;
75261;SDS011;63859;51.064;4.580;2023-10-19T03:01:17;6.63;;;1.92;;
75261;SDS011;63859;51.064;4.580;2023-10-19T03:03:48;4.40;;;1.63;;
75261;SDS011;63859;51.064;4.580;2023-10-19T03:06:19;4.60;;;1.60;;
75261;SDS011;63859;51.064;4.580;2023-10-19T03:08:48;9.85;;;2.00;;
75261;SDS011;63859;51.064;4.580;2023-10-19T03:11:29;7.93;;;1.67;;
75261;SDS011;63859;51.064;4.580;2023-10-19T03:13:57;10.65;;;2.22;;
75261;SDS011;63859;51.064;4.580;2023-10-19T03:16:23;8.13;;;1.88;;
75261;SDS011;63859;51.064;4.580;2023-10-19T03:18:49;6.57;;;2.30;;
75261;SDS011;63859;51.064;4.580;2023-10-19T03:21:18;9.27;;;2.50;;
75261;SDS011;63859;51.064;4.580;2023-10-19T03:23:51;7.90;;;1.83;;
75261;SDS011;63859;51.064;4.580;2023-10-19T03:26:21;5.32;;;1.55;;
75261;SDS011;63859;51.064;4.580;2023-10-19T03:28:53;5.65;;;2.10;;
75261;SDS011;63859;51.064;4.580;2023-10-19T03:31:22;11.00;;;1.98;;
75261;SDS011;63859;51.064;4.580;2023-10-19T03:33:52;12.98;;;2.67;;
75261;SDS011;63859;51.064;4.580;2023-10-19T03:36:25;5.45;;;2.08;;
75261;SDS011;63859;51.064;4.580;2023-10-19T03:38:51;9.45;;;2.30;;
75261;SDS011;63859;51.064;4.580;2023-10-19T03:41:19;9.73;;;2.38;;
75261;SDS011;63859;51.064;4.580;2023-10-19T03:43:53;6.45;;;2.40;;
75261;SDS011;63859;51.064;4.580;2023-10-19T03:46:19;6.82;;;2.83;;
75261;SDS011;63859;51.064;4.580;2023-10-19T03:48:56;11.25;;;2.50;;
75261;SDS011;63859;51.064;4.580;2023-10-19T03:51:25;8.95;;;2.30;;
75261;SDS011;63859;51.064;4.580;2023-10-19T03:53:51;5.13;;;2.15;;
75261;SDS011;63859;51.064;4.580;2023-10-19T03:56:23;12.57;;;2.20;;
75261;SDS011;63859;51.064;4.580;2023-10-19T03:58:49;9.05;;;2.15;;
75261;SDS011;63859;51.064;4.580;2023-10-19T04:01:16;10.50;;;2.53;;
75261;SDS011;63859;51.064;4.580;2023-10-19T04:03:44;8.77;;;2.58;;
75261;SDS011;63859;51.064;4.580;2023-10-19T04:06:10;6.85;;;2.50;;
75261;SDS011;63859;51.064;4.580;2023-10-19T04:08:40;6.60;;;2.10;;
75261;SDS011;63859;51.064;4.580;2023-10-19T04:11:08;11.00;;;2.72;;
75261;SDS011;63859;51.064;4.580;2023-10-19T04:13:37;9.45;;;2.38;;
75261;SDS011;63859;51.064;4.580;2023-10-19T04:16:03;6.75;;;2.45;;
75261;SDS011;63859;51.064;4.580;2023-10-19T04:18:35;10.82;;;2.45;;
75261;SDS011;63859;51.064;4.580;2023-10-19T04:21:05;14.65;;;2.40;;
75261;SDS011;63859;51.064;4.580;2023-10-19T04:23:30;9.90;;;2.35;;
75261;SDS011;63859;51.064;4.580;2023-10-19T04:26:00;7.88;;;2.10;;
75261;SDS011;63859;51.064;4.580;2023-10-19T04:28:30;10.82;;;2.30;;
75261;SDS011;63859;51.064;4.580;2023-10-19T04:31:03;10.35;;;2.13;;
75261;SDS011;63859;51.064;4.580;2023-10-19T04:33:30;8.77;;;2.40;;
75261;SDS011;63859;51.064;4.580;2023-10-19T04:35:57;8.98;;;2.30;;
75261;SDS011;63859;51.064;4.580;2023-10-19T04:38:25;15.00;;;2.75;;
75261;SDS011;63859;51.064;4.580;2023-10-19T04:40:51;9.98;;;2.03;;
75261;SDS011;63859;51.064;4.580;2023-10-19T04:43:17;8.30;;;2.05;;
75261;SDS011;63859;51.064;4.580;2023-10-19T04:45:43;9.52;;;2.25;;
75261;SDS011;63859;51.064;4.580;2023-10-19T04:48:11;7.93;;;2.20;;
75261;SDS011;63859;51.064;4.580;2023-10-19T04:50:37;9.45;;;2.40;;
75261;SDS011;63859;51.064;4.580;2023-10-19T04:53:02;7.38;;;2.15;;
75261;SDS011;63859;51.064;4.580;2023-10-19T04:55:29;13.82;;;2.40;;
75261;SDS011;63859;51.064;4.580;2023-10-19T04:57:55;10.07;;;2.28;;
75261;SDS011;63859;51.064;4.580;2023-10-19T05:00:22;10.90;;;2.17;;
75261;SDS011;63859;51.064;4.580;2023-10-19T05:02:49;11.60;;;2.30;;
75261;SDS011;63859;51.064;4.580;2023-10-19T05:05:17;10.25;;;2.10;;
75261;SDS011;63859;51.064;4.580;2023-10-19T05:07:43;9.90;;;2.10;;
75261;SDS011;63859;51.064;4.580;2023-10-19T05:10:09;11.88;;;2.90;;
75261;SDS011;63859;51.064;4.580;2023-10-19T05:12:36;13.82;;;2.60;;
75261;SDS011;63859;51.064;4.580;2023-10-19T05:15:01;14.82;;;2.38;;
75261;SDS011;63859;51.064;4.580;2023-10-19T05:17:27;14.35;;;2.53;;
75261;SDS011;63859;51.064;4.580;2023-10-19T05:19:53;9.45;;;2.47;;
75261;SDS011;63859;51.064;4.580;2023-10-19T05:22:19;9.98;;;2.42;;
75261;SDS011;63859;51.064;4.580;2023-10-19T05:24:46;10.35;;;3.40;;
75261;SDS011;63859;51.064;4.580;2023-10-19T05:27:12;10.20;;;2.15;;
75261;SDS011;63859;51.064;4.580;2023-10-19T05:29:38;10.88;;;2.20;;
75261;SDS011;63859;51.064;4.580;2023-10-19T05:32:04;7.07;;;2.45;;
75261;SDS011;63859;51.064;4.580;2023-10-19T05:34:30;10.52;;;2.05;;
75261;SDS011;63859;51.064;4.580;2023-10-19T05:37:00;12.07;;;2.17;;
75261;SDS011;63859;51.064;4.580;2023-10-19T05:39:27;10.65;;;2.53;;
75261;SDS011;63859;51.064;4.580;2023-10-19T05:41:54;16.92;;;3.03;;
75261;SDS011;63859;51.064;4.580;2023-10-19T05:44:20;11.70;;;2.80;;
75261;SDS011;63859;51.064;4.580;2023-10-19T05:46:47;9.43;;;2.30;;
75261;SDS011;63859;51.064;4.580;2023-10-19T05:49:12;12.07;;;2.40;;
75261;SDS011;63859;51.064;4.580;2023-10-19T05:51:38;13.95;;;2.50;;
75261;SDS011;63859;51.064;4.580;2023-10-19T05:54:06;12.90;;;2.60;;
75261;SDS011;63859;51.064;4.580;2023-10-19T05:56:33;10.15;;;2.72;;
75261;SDS011;63859;51.064;4.580;2023-10-19T05:58:59;10.13;;;2.55;;
75261;SDS011;63859;51.064;4.580;2023-10-19T06:01:26;11.00;;;2.58;;
75261;SDS011;63859;51.064;4.580;2023-10-19T06:03:52;13.48;;;2.72;;
75261;SDS011;63859;51.064;4.580;2023-10-19T06:06:18;11.98;;;2.25;;
75261;SDS011;63859;51.064;4.580;2023-10-19T06:08:45;13.05;;;2.60;;
75261;SDS011;63859;51.064;4.580;2023-10-19T06:11:11;10.30;;;2.70;;
75261;SDS011;63859;51.064;4.580;2023-10-19T06:13:36;13.20;;;2.90;;
75261;SDS011;63859;51.064;4.580;2023-10-19T06:16:02;16.20;;;3.35;;
75261;SDS011;63859;51.064;4.580;2023-10-19T06:18:28;14.57;;;2.83;;
75261;SDS011;63859;51.064;4.580;2023-10-19T06:20:56;11.35;;;2.90;;
75261;SDS011;63859;51.064;4.580;2023-10-19T06:23:22;9.60;;;2.63;;
75261;SDS011;63859;51.064;4.580;2023-10-19T06:25:48;15.30;;;2.92;;
75261;SDS011;63859;51.064;4.580;2023-10-19T06:28:15;11.95;;;2.85;;
75261;SDS011;63859;51.064;4.580;2023-10-19T06:30:41;9.88;;;3.00;;
75261;SDS011;63859;51.064;4.580;2023-10-19T06:33:07;14.60;;;2.72;;
75261;SDS011;63859;51.064;4.580;2023-10-19T06:35:33;14.02;;;2.85;;
75261;SDS011;63859;51.064;4.580;2023-10-19T06:38:01;12.40;;;2.65;;
75261;SDS011;63859;51.064;4.580;2023-10-19T06:40:28;11.55;;;3.00;;
75261;SDS011;63859;51.064;4.580;2023-10-19T06:42:55;10.77;;;2.65;;
75261;SDS011;63859;51.064;4.580;2023-10-19T06:45:21;18.35;;;2.80;;
75261;SDS011;63859;51.064;4.580;2023-10-19T06:47:47;10.63;;;2.50;;
75261;SDS011;63859;51.064;4.580;2023-10-19T06:50:15;10.50;;;2.85;;
75261;SDS011;63859;51.064;4.580;2023-10-19T06:52:43;10.93;;;2.80;;
75261;SDS011;63859;51.064;4.580;2023-10-19T06:55:10;11.40;;;2.42;;
75261;SDS011;63859;51.064;4.580;2023-10-19T06:57:42;11.60;;;2.13;;
75261;SDS011;63859;51.064;4.580;2023-10-19T07:00:12;13.95;;;2.63;;
75261;SDS011;63859;51.064;4.580;2023-10-19T07:02:44;14.45;;;2.55;;
75261;SDS011;63859;51.064;4.580;2023-10-19T07:05:21;10.48;;;3.15;;
75261;SDS011;63859;51.064;4.580;2023-10-19T07:07:51;20.55;;;2.90;;
75261;SDS011;63859;51.064;4.580;2023-10-19T07:10:19;11.55;;;2.47;;
75261;SDS011;63859;51.064;4.580;2023-10-19T07:12:46;10.93;;;2.92;;
75261;SDS011;63859;51.064;4.580;2023-10-19T07:15:14;14.65;;;3.33;;
75261;SDS011;63859;51.064;4.580;2023-10-19T07:17:40;13.45;;;2.80;;
75261;SDS011;63859;51.064;4.580;2023-10-19T07:20:06;12.98;;;2.88;;
75261;SDS011;63859;51.064;4.580;2023-10-19T07:22:34;12.85;;;2.78;;
75261;SDS011;63859;51.064;4.580;2023-10-19T07:25:04;10.43;;;2.53;;
75261;SDS011;63859;51.064;4.580;2023-10-19T07:27:31;15.70;;;2.70;;
75261;SDS011;63859;51.064;4.580;2023-10-19T07:29:58;11.55;;;2.75;;
75261;SDS011;63859;51.064;4.580;2023-10-19T07:32:24;10.23;;;2.85;;
75261;SDS011;63859;51.064;4.580;2023-10-19T07:34:50;14.13;;;3.28;;
75261;SDS011;63859;51.064;4.580;2023-10-19T07:37:15;12.40;;;2.95;;
75261;SDS011;63859;51.064;4.580;2023-10-19T07:39:44;12.45;;;2.60;;
75261;SDS011;63859;51.064;4.580;2023-10-19T07:42:11;16.17;;;2.92;;
75261;SDS011;63859;51.064;4.580;2023-10-19T07:44:37;10.95;;;2.80;;
75261;SDS011;63859;51.064;4.580;2023-10-19T07:47:02;14.07;;;2.70;;
75261;SDS011;63859;51.064;4.580;2023-10-19T07:49:28;12.43;;;3.80;;
75261;SDS011;63859;51.064;4.580;2023-10-19T07:51:54;12.50;;;2.88;;
75261;SDS011;63859;51.064;4.580;2023-10-19T07:54:21;14.77;;;2.90;;
75261;SDS011;63859;51.064;4.580;2023-10-19T07:56:47;12.77;;;3.03;;
75261;SDS011;63859;51.064;4.580;2023-10-19T07:59:14;14.85;;;3.28;;
75261;SDS011;63859;51.064;4.580;2023-10-19T08:01:41;6.53;;;1.92;;
75261;SDS011;63859;51.064;4.580;2023-10-19T08:04:07;11.20;;;2.90;;
75261;SDS011;63859;51.064;4.580;2023-10-19T08:06:33;16.02;;;3.28;;
75261;SDS011;63859;51.064;4.580;2023-10-19T08:08:58;18.63;;;3.05;;
75261;SDS011;63859;51.064;4.580;2023-10-19T08:11:24;13.38;;;2.90;;
75261;SDS011;63859;51.064;4.580;2023-10-19T08:13:50;15.27;;;3.22;;
75261;SDS011;63859;51.064;4.580;2023-10-19T08:16:16;15.07;;;3.17;;
75261;SDS011;63859;51.064;4.580;2023-10-19T08:18:45;12.48;;;2.85;;
75261;SDS011;63859;51.064;4.580;2023-10-19T08:21:10;12.68;;;3.15;;
75261;SDS011;63859;51.064;4.580;2023-10-19T08:23:37;18.80;;;3.67;;
75261;SDS011;63859;51.064;4.580;2023-10-19T08:26:03;11.90;;;2.60;;
75261;SDS011;63859;51.064;4.580;2023-10-19T08:28:30;15.07;;;3.20;;
75261;SDS011;63859;51.064;4.580;2023-10-19T08:30:57;22.83;;;4.40;;
75261;SDS011;63859;51.064;4.580;2023-10-19T08:33:26;15.35;;;2.80;;
75261;SDS011;63859;51.064;4.580;2023-10-19T08:35:54;15.50;;;3.17;;
75261;SDS011;63859;51.064;4.580;2023-10-19T08:38:25;17.30;;;2.83;;
75261;SDS011;63859;51.064;4.580;2023-10-19T08:40:51;12.45;;;3.03;;
75261;SDS011;63859;51.064;4.580;2023-10-19T08:43:20;12.32;;;2.58;;
75261;SDS011;63859;51.064;4.580;2023-10-19T08:45:46;13.63;;;2.67;;
75261;SDS011;63859;51.064;4.580;2023-10-19T08:48:12;11.93;;;3.00;;
75261;SDS011;63859;51.064;4.580;2023-10-19T08:50:39;14.57;;;2.85;;
75261;SDS011;63859;51.064;4.580;2023-10-19T08:53:06;12.63;;;2.95;;
75261;SDS011;63859;51.064;4.580;2023-10-19T08:55:44;10.07;;;2.40;;
75261;SDS011;63859;51.064;4.580;2023-10-19T08:58:10;12.13;;;2.78;;
75261;SDS011;63859;51.064;4.580;2023-10-19T09:00:43;12.95;;;2.75;;
75261;SDS011;63859;51.064;4.580;2023-10-19T09:03:13;21.58;;;3.50;;
75261;SDS011;63859;51.064;4.580;2023-10-19T09:05:39;17.05;;;3.05;;
75261;SDS011;63859;51.064;4.580;2023-10-19T09:08:05;21.13;;;3.28;;
75261;SDS011;63859;51.064;4.580;2023-10-19T09:10:31;15.40;;;3.20;;
75261;SDS011;63859;51.064;4.580;2023-10-19T09:13:04;15.68;;;2.97;;
75261;SDS011;63859;51.064;4.580;2023-10-19T09:15:34;13.82;;;2.80;;
75261;SDS011;63859;51.064;4.580;2023-10-19T09:20:40;15.50;;;2.92;;
75261;SDS011;63859;51.064;4.580;2023-10-19T09:23:07;15.38;;;2.78;;
75261;SDS011;63859;51.064;4.580;2023-10-19T09:25:33;22.98;;;3.50;;
75261;SDS011;63859;51.064;4.580;2023-10-19T09:28:00;24.13;;;2.80;;
75261;SDS011;63859;51.064;4.580;2023-10-19T09:30:30;17.98;;;3.08;;
75261;SDS011;63859;51.064;4.580;2023-10-19T09:32:56;16.20;;;3.08;;
75261;SDS011;63859;51.064;4.580;2023-10-19T09:35:24;18.20;;;2.90;;
75261;SDS011;63859;51.064;4.580;2023-10-19T09:37:53;13.65;;;2.72;;
75261;SDS011;63859;51.064;4.580;2023-10-19T09:40:19;24.95;;;3.25;;
75261;SDS011;63859;51.064;4.580;2023-10-19T09:42:46;19.73;;;4.03;;
75261;SDS011;63859;51.064;4.580;2023-10-19T09:45:16;19.17;;;3.30;;
75261;SDS011;63859;51.064;4.580;2023-10-19T09:47:48;15.55;;;2.30;;
75261;SDS011;63859;51.064;4.580;2023-10-19T09:50:16;13.70;;;3.03;;
75261;SDS011;63859;51.064;4.580;2023-10-19T09:52:41;13.65;;;2.42;;
75261;SDS011;63859;51.064;4.580;2023-10-19T09:55:10;16.42;;;2.95;;
75261;SDS011;63859;51.064;4.580;2023-10-19T09:57:51;16.02;;;3.00;;
75261;SDS011;63859;51.064;4.580;2023-10-19T10:00:18;19.48;;;3.58;;
75261;SDS011;63859;51.064;4.580;2023-10-19T10:02:50;21.63;;;3.15;;
75261;SDS011;63859;51.064;4.580;2023-10-19T10:08:29;26.73;;;3.03;;
75261;SDS011;63859;51.064;4.580;2023-10-19T10:10:57;18.45;;;5.40;;
75261;SDS011;63859;51.064;4.580;2023-10-19T10:15:52;23.83;;;3.72;;
75261;SDS011;63859;51.064;4.580;2023-10-19T10:18:20;15.00;;;2.80;;
75261;SDS011;63859;51.064;4.580;2023-10-19T10:20:46;19.83;;;3.47;;
75261;SDS011;63859;51.064;4.580;2023-10-19T10:23:19;15.13;;;2.97;;
75261;SDS011;63859;51.064;4.580;2023-10-19T10:25:51;14.88;;;3.30;;
75261;SDS011;63859;51.064;4.580;2023-10-19T10:28:18;13.10;;;3.22;;
75261;SDS011;63859;51.064;4.580;2023-10-19T10:33:44;31.63;;;3.42;;
75261;SDS011;63859;51.064;4.580;2023-10-19T10:36:11;20.77;;;3.03;;
75261;SDS011;63859;51.064;4.580;2023-10-19T10:38:37;21.92;;;2.80;;
75261;SDS011;63859;51.064;4.580;2023-10-19T10:41:04;11.35;;;2.53;;
75261;SDS011;63859;51.064;4.580;2023-10-19T10:43:30;17.88;;;3.17;;
75261;SDS011;63859;51.064;4.580;2023-10-19T10:46:03;12.65;;;2.78;;
75261;SDS011;63859;51.064;4.580;2023-10-19T10:48:40;14.40;;;3.55;;
75261;SDS011;63859;51.064;4.580;2023-10-19T10:51:14;26.52;;;3.47;;
75261;SDS011;63859;51.064;4.580;2023-10-19T10:53:47;20.13;;;3.58;;
75261;SDS011;63859;51.064;4.580;2023-10-19T10:56:14;13.77;;;2.97;;
75261;SDS011;63859;51.064;4.580;2023-10-19T10:58:40;40.38;;;5.35;;
75261;SDS011;63859;51.064;4.580;2023-10-19T11:01:06;13.73;;;2.92;;
75261;SDS011;63859;51.064;4.580;2023-10-19T11:03:32;16.27;;;3.17;;
75261;SDS011;63859;51.064;4.580;2023-10-19T11:06:07;16.35;;;3.15;;
75261;SDS011;63859;51.064;4.580;2023-10-19T11:08:33;20.33;;;3.10;;
75261;SDS011;63859;51.064;4.580;2023-10-19T11:11:04;15.65;;;2.95;;
75261;SDS011;63859;51.064;4.580;2023-10-19T11:13:37;16.52;;;2.90;;
75261;SDS011;63859;51.064;4.580;2023-10-19T11:16:07;15.30;;;2.80;;
75261;SDS011;63859;51.064;4.580;2023-10-19T11:18:38;12.65;;;3.55;;
75261;SDS011;63859;51.064;4.580;2023-10-19T11:21:11;13.60;;;3.50;;
75261;SDS011;63859;51.064;4.580;2023-10-19T11:23:46;12.60;;;2.88;;
75261;SDS011;63859;51.064;4.580;2023-10-19T11:26:16;10.48;;;2.88;;
75261;SDS011;63859;51.064;4.580;2023-10-19T11:28:44;14.43;;;3.00;;
75261;SDS011;63859;51.064;4.580;2023-10-19T11:31:19;15.70;;;2.80;;
75261;SDS011;63859;51.064;4.580;2023-10-19T11:33:49;11.73;;;2.58;;
75261;SDS011;63859;51.064;4.580;2023-10-19T11:36:16;15.02;;;3.00;;
75261;SDS011;63859;51.064;4.580;2023-10-19T11:38:47;9.98;;;2.67;;
75261;SDS011;63859;51.064;4.580;2023-10-19T11:41:14;17.52;;;3.67;;
75261;SDS011;63859;51.064;4.580;2023-10-19T11:43:41;18.63;;;3.13;;
75261;SDS011;63859;51.064;4.580;2023-10-19T11:46:09;14.68;;;2.45;;
75261;SDS011;63859;51.064;4.580;2023-10-19T11:48:40;20.13;;;4.13;;
75261;SDS011;63859;51.064;4.580;2023-10-19T11:51:07;14.80;;;4.20;;
75261;SDS011;63859;51.064;4.580;2023-10-19T11:53:36;15.30;;;3.80;;
75261;SDS011;63859;51.064;4.580;2023-10-19T11:56:03;14.68;;;3.50;;
75261;SDS011;63859;51.064;4.580;2023-10-19T11:58:31;13.52;;;3.70;;
75261;SDS011;63859;51.064;4.580;2023-10-19T12:01:03;13.68;;;3.38;;
75261;SDS011;63859;51.064;4.580;2023-10-19T12:03:38;14.32;;;3.15;;
75261;SDS011;63859;51.064;4.580;2023-10-19T12:06:09;17.58;;;3.63;;
75261;SDS011;63859;51.064;4.580;2023-10-19T12:08:35;16.13;;;3.95;;
75261;SDS011;63859;51.064;4.580;2023-10-19T12:11:02;15.05;;;3.40;;
75261;SDS011;63859;51.064;4.580;2023-10-19T12:13:29;18.45;;;3.83;;
75261;SDS011;63859;51.064;4.580;2023-10-19T12:15:56;12.63;;;3.40;;
75261;SDS011;63859;51.064;4.580;2023-10-19T12:18:22;14.50;;;3.15;;
75261;SDS011;63859;51.064;4.580;2023-10-19T12:20:50;18.90;;;3.83;;
75261;SDS011;63859;51.064;4.580;2023-10-19T12:23:21;13.57;;;3.15;;
75261;SDS011;63859;51.064;4.580;2023-10-19T12:25:48;12.27;;;3.33;;
75261;SDS011;63859;51.064;4.580;2023-10-19T12:28:14;17.42;;;3.22;;
75261;SDS011;63859;51.064;4.580;2023-10-19T12:30:41;25.10;;;4.28;;
75261;SDS011;63859;51.064;4.580;2023-10-19T12:33:06;19.35;;;3.65;;
75261;SDS011;63859;51.064;4.580;2023-10-19T12:35:40;13.48;;;3.00;;
75261;SDS011;63859;51.064;4.580;2023-10-19T12:38:24;14.25;;;3.20;;
75261;SDS011;63859;51.064;4.580;2023-10-19T12:40:50;13.55;;;3.47;;
75261;SDS011;63859;51.064;4.580;2023-10-19T12:43:17;15.52;;;3.40;;
75261;SDS011;63859;51.064;4.580;2023-10-19T12:45:44;15.73;;;3.45;;
75261;SDS011;63859;51.064;4.580;2023-10-19T12:48:15;14.48;;;3.05;;
75261;SDS011;63859;51.064;4.580;2023-10-19T12:50:41;9.07;;;2.78;;
75261;SDS011;63859;51.064;4.580;2023-10-19T12:53:07;13.02;;;3.05;;
75261;SDS011;63859;51.064;4.580;2023-10-19T12:55:34;9.57;;;3.20;;
75261;SDS011;63859;51.064;4.580;2023-10-19T12:58:02;16.90;;;3.05;;
75261;SDS011;63859;51.064;4.580;2023-10-19T13:00:35;9.07;;;2.60;;
75261;SDS011;63859;51.064;4.580;2023-10-19T13:03:04;9.07;;;2.40;;
75261;SDS011;63859;51.064;4.580;2023-10-19T13:05:35;7.85;;;2.30;;
75261;SDS011;63859;51.064;4.580;2023-10-19T13:08:05;9.70;;;2.50;;
75261;SDS011;63859;51.064;4.580;2023-10-19T13:10:38;7.65;;;2.17;;
75261;SDS011;63859;51.064;4.580;2023-10-19T13:13:07;9.63;;;2.88;;
75261;SDS011;63859;51.064;4.580;2023-10-19T13:15:41;10.38;;;2.72;;
75261;SDS011;63859;51.064;4.580;2023-10-19T13:18:09;9.02;;;2.42;;
75261;SDS011;63859;51.064;4.580;2023-10-19T13:20:39;5.75;;;2.25;;
75261;SDS011;63859;51.064;4.580;2023-10-19T13:23:09;7.35;;;2.65;;
75261;SDS011;63859;51.064;4.580;2023-10-19T13:25:41;7.88;;;2.10;;
75261;SDS011;63859;51.064;4.580;2023-10-19T13:28:27;9.25;;;2.10;;
75261;SDS011;63859;51.064;4.580;2023-10-19T13:30:53;6.15;;;1.75;;
75261;SDS011;63859;51.064;4.580;2023-10-19T13:33:19;5.05;;;1.55;;
75261;SDS011;63859;51.064;4.580;2023-10-19T13:35:53;2.35;;;1.30;;
75261;SDS011;63859;51.064;4.580;2023-10-19T13:38:19;3.92;;;1.77;;
75261;SDS011;63859;51.064;4.580;2023-10-19T13:40:45;8.52;;;1.65;;
75261;SDS011;63859;51.064;4.580;2023-10-19T13:43:11;6.30;;;1.42;;
75261;SDS011;63859;51.064;4.580;2023-10-19T13:45:41;4.53;;;1.30;;
75261;SDS011;63859;51.064;4.580;2023-10-19T13:48:08;5.82;;;1.90;;
75261;SDS011;63859;51.064;4.580;2023-10-19T13:50:34;3.42;;;1.30;;
75261;SDS011;63859;51.064;4.580;2023-10-19T13:53:01;2.20;;;1.45;;
75261;SDS011;63859;51.064;4.580;2023-10-19T13:55:30;2.88;;;1.20;;
75261;SDS011;63859;51.064;4.580;2023-10-19T13:57:56;4.28;;;1.40;;
75261;SDS011;63859;51.064;4.580;2023-10-19T14:00:23;3.97;;;1.40;;
75261;SDS011;63859;51.064;4.580;2023-10-19T14:02:53;3.47;;;1.40;;
75261;SDS011;63859;51.064;4.580;2023-10-19T14:05:19;4.68;;;1.50;;
75261;SDS011;63859;51.064;4.580;2023-10-19T14:07:48;3.38;;;1.42;;
75261;SDS011;63859;51.064;4.580;2023-10-19T14:10:14;4.40;;;1.50;;
75261;SDS011;63859;51.064;4.580;2023-10-19T14:12:40;4.43;;;1.80;;
75261;SDS011;63859;51.064;4.580;2023-10-19T14:15:13;8.77;;;1.55;;
75261;SDS011;63859;51.064;4.580;2023-10-19T14:17:41;6.55;;;1.70;;
75261;SDS011;63859;51.064;4.580;2023-10-19T14:20:07;3.90;;;1.50;;
75261;SDS011;63859;51.064;4.580;2023-10-19T14:22:40;3.45;;;1.38;;
75261;SDS011;63859;51.064;4.580;2023-10-19T14:25:10;3.35;;;1.23;;
75261;SDS011;63859;51.064;4.580;2023-10-19T14:27:40;4.90;;;1.38;;
75261;SDS011;63859;51.064;4.580;2023-10-19T14:30:15;2.88;;;1.27;;
75261;SDS011;63859;51.064;4.580;2023-10-19T14:32:43;2.92;;;1.40;;
75261;SDS011;63859;51.064;4.580;2023-10-19T14:35:12;4.90;;;1.42;;
75261;SDS011;63859;51.064;4.580;2023-10-19T14:37:40;3.53;;;1.08;;
75261;SDS011;63859;51.064;4.580;2023-10-19T14:40:16;4.30;;;1.45;;
75261;SDS011;63859;51.064;4.580;2023-10-19T14:42:45;3.38;;;1.52;;
75261;SDS011;63859;51.064;4.580;2023-10-19T14:45:11;1.48;;;1.20;;
75261;SDS011;63859;51.064;4.580;2023-10-19T14:47:39;3.40;;;1.58;;
75261;SDS011;63859;51.064;4.580;2023-10-19T14:52:36;3.22;;;1.38;;
75261;SDS011;63859;51.064;4.580;2023-10-19T14:55:04;3.92;;;1.30;;
75261;SDS011;63859;51.064;4.580;2023-10-19T14:57:31;3.03;;;1.48;;
75261;SDS011;63859;51.064;4.580;2023-10-19T15:00:00;1.83;;;1.17;;
75261;SDS011;63859;51.064;4.580;2023-10-19T15:02:39;3.13;;;1.20;;
75261;SDS011;63859;51.064;4.580;2023-10-19T15:05:09;2.92;;;1.25;;
75261;SDS011;63859;51.064;4.580;2023-10-19T15:07:39;2.97;;;1.60;;
75261;SDS011;63859;51.064;4.580;2023-10-19T15:10:07;1.60;;;1.10;;